createdAt,value
2019-01-23T00:00:21.839Z,2.28
2019-01-23T00:00:47.985Z,2.22
2019-01-23T00:01:14.123Z,2.32
2019-01-23T00:01:40.262Z,2.28
2019-01-23T00:02:06.433Z,2.32
2019-01-23T00:02:32.573Z,2.26
2019-01-23T00:02:58.708Z,2.31
2019-01-23T00:03:24.847Z,2.36
2019-01-23T00:03:50.998Z,2.26
2019-01-23T00:04:17.153Z,2.28
2019-01-23T00:04:43.309Z,2.35
2019-01-23T00:05:09.470Z,2.31
2019-01-23T00:05:35.623Z,2.28
2019-01-23T00:06:01.782Z,2.33
2019-01-23T00:06:27.930Z,2.35
2019-01-23T00:06:54.085Z,2.39
2019-01-23T00:07:20.271Z,2.38
2019-01-23T00:07:46.431Z,2.43
2019-01-23T00:08:12.575Z,2.39
2019-01-23T00:08:38.738Z,2.35
2019-01-23T00:09:04.895Z,2.36
2019-01-23T00:09:31.045Z,2.33
2019-01-23T00:09:57.197Z,2.33
2019-01-23T00:10:23.345Z,2.39
2019-01-23T00:10:49.496Z,2.31
2019-01-23T00:11:15.692Z,2.39
2019-01-23T00:11:41.838Z,2.43
2019-01-23T00:12:07.990Z,2.33
2019-01-23T00:12:34.149Z,2.33
2019-01-23T00:13:00.300Z,2.38
2019-01-23T00:13:26.453Z,2.32
2019-01-23T00:13:52.648Z,2.28
2019-01-23T00:14:18.805Z,2.35
2019-01-23T00:14:45.005Z,2.42
2019-01-23T00:15:11.163Z,2.35
2019-01-23T00:15:37.307Z,2.47
2019-01-23T00:16:03.465Z,2.43
2019-01-23T00:16:29.655Z,2.35
2019-01-23T00:16:55.805Z,2.36
2019-01-23T00:17:21.962Z,2.39
2019-01-23T00:17:48.121Z,2.35
2019-01-23T00:18:14.274Z,2.36
2019-01-23T00:18:40.429Z,2.31
2019-01-23T00:19:06.577Z,2.28
2019-01-23T00:19:32.724Z,2.31
2019-01-23T00:19:58.881Z,2.31
2019-01-23T00:20:25.035Z,2.33
2019-01-23T00:20:51.188Z,2.32
2019-01-23T00:21:17.341Z,2.35
2019-01-23T00:21:43.502Z,2.33
2019-01-23T00:22:09.653Z,2.32
2019-01-23T00:22:35.806Z,2.39
2019-01-23T00:23:02.002Z,2.31
2019-01-23T00:23:28.190Z,2.28
2019-01-23T00:23:54.377Z,2.31
2019-01-23T00:24:20.532Z,2.29
2019-01-23T00:24:46.691Z,2.28
2019-01-23T00:25:12.839Z,2.31
2019-01-23T00:25:38.993Z,2.22
2019-01-23T00:26:05.144Z,2.32
2019-01-23T00:26:31.302Z,2.28
2019-01-23T00:26:57.454Z,2.17
2019-01-23T00:27:23.607Z,2.14
2019-01-23T00:27:49.806Z,2.22
2019-01-23T00:28:15.959Z,2.14
2019-01-23T00:28:43.111Z,2.24
2019-01-23T00:29:09.266Z,2.11
2019-01-23T00:29:35.423Z,2.13
2019-01-23T00:30:01.580Z,2.14
2019-01-23T00:30:27.735Z,2.2
2019-01-23T00:30:53.894Z,2.17
2019-01-23T00:31:20.039Z,2.15
2019-01-23T00:31:46.192Z,2.2
2019-01-23T00:32:12.346Z,2.18
2019-01-23T00:32:38.503Z,2.15
2019-01-23T00:33:04.653Z,2.15
2019-01-23T00:33:30.809Z,2.18
2019-01-23T00:33:56.961Z,2.13
2019-01-23T00:34:23.158Z,2.08
2019-01-23T00:34:49.309Z,2.13
2019-01-23T00:35:15.468Z,2.07
2019-01-23T00:35:41.619Z,2.11
2019-01-23T00:36:07.775Z,2.08
2019-01-23T00:36:34.001Z,1.99
2019-01-23T00:37:00.158Z,2.04
2019-01-23T00:37:26.345Z,2.06
2019-01-23T00:37:52.487Z,2
2019-01-23T00:38:19.792Z,2.02
2019-01-23T00:38:45.833Z,1.91
2019-01-23T00:39:12.020Z,2.02
2019-01-23T00:39:38.209Z,2
2019-01-23T00:40:04.404Z,2.02
2019-01-23T00:40:30.552Z,1.84
2019-01-23T00:40:56.742Z,1.89
2019-01-23T00:41:22.899Z,1.88
2019-01-23T00:41:49.050Z,1.95
2019-01-23T00:42:15.199Z,1.89
2019-01-23T00:42:41.394Z,1.89
2019-01-23T00:43:07.547Z,1.8
2019-01-23T00:43:33.739Z,1.87
2019-01-23T00:43:59.892Z,1.85
2019-01-23T00:44:26.047Z,1.88
2019-01-23T00:44:52.195Z,1.88
2019-01-23T00:45:18.340Z,1.77
2019-01-23T00:45:44.539Z,1.87
2019-01-23T00:46:10.691Z,1.87
2019-01-23T00:46:36.842Z,1.78
2019-01-23T00:47:02.996Z,1.78
2019-01-23T00:47:29.153Z,1.85
2019-01-23T00:47:55.302Z,1.73
2019-01-23T00:48:21.453Z,1.77
2019-01-23T00:48:47.610Z,1.77
2019-01-23T00:49:13.768Z,1.81
2019-01-23T00:49:39.955Z,1.77
2019-01-23T00:50:06.148Z,1.81
2019-01-23T00:50:32.303Z,1.84
2019-01-23T00:50:58.457Z,1.87
2019-01-23T00:51:24.607Z,1.85
2019-01-23T00:51:50.764Z,1.89
2019-01-23T00:52:16.915Z,1.85
2019-01-23T00:52:43.066Z,1.85
2019-01-23T00:53:09.304Z,1.88
2019-01-23T00:53:35.462Z,1.81
2019-01-23T00:54:01.612Z,1.88
2019-01-23T00:54:27.768Z,1.87
2019-01-23T00:54:53.920Z,1.87
2019-01-23T00:55:20.115Z,1.85
2019-01-23T00:55:46.263Z,1.85
2019-01-23T00:56:12.417Z,1.84
2019-01-23T00:56:38.571Z,1.84
2019-01-23T00:57:04.725Z,1.94
2019-01-23T00:57:30.881Z,1.92
2019-01-23T00:57:57.039Z,1.89
2019-01-23T00:58:23.227Z,1.92
2019-01-23T00:58:50.364Z,1.88
2019-01-23T00:59:16.523Z,1.87
2019-01-23T00:59:42.692Z,1.85
2019-01-23T01:00:08.840Z,1.91
2019-01-23T01:00:34.990Z,1.87
2019-01-23T01:01:01.141Z,1.88
2019-01-23T01:01:28.284Z,1.88
2019-01-23T01:01:54.431Z,1.87
2019-01-23T01:02:20.576Z,1.94
2019-01-23T01:02:46.735Z,1.85
2019-01-23T01:03:12.894Z,1.97
2019-01-23T01:03:39.039Z,1.89
2019-01-23T01:04:05.264Z,1.88
2019-01-23T01:04:31.422Z,1.88
2019-01-23T01:04:57.577Z,1.84
2019-01-23T01:05:23.727Z,1.88
2019-01-23T01:05:49.884Z,1.81
2019-01-23T01:06:16.032Z,1.97
2019-01-23T01:06:42.216Z,1.85
2019-01-23T01:07:08.439Z,1.89
2019-01-23T01:07:34.590Z,1.85
2019-01-23T01:08:00.746Z,1.85
2019-01-23T01:08:26.901Z,1.85
2019-01-23T01:08:53.052Z,1.85
2019-01-23T01:09:19.204Z,1.87
2019-01-23T01:09:45.358Z,1.84
2019-01-23T01:10:11.516Z,1.81
2019-01-23T01:10:37.666Z,1.85
2019-01-23T01:11:03.820Z,1.87
2019-01-23T01:11:30.005Z,1.84
2019-01-23T01:11:56.190Z,1.92
2019-01-23T01:12:22.344Z,1.87
2019-01-23T01:12:48.497Z,1.99
2019-01-23T01:13:14.650Z,1.94
2019-01-23T01:13:40.809Z,1.95
2019-01-23T01:14:07.000Z,1.97
2019-01-23T01:14:33.157Z,1.99
2019-01-23T01:14:59.311Z,2.02
2019-01-23T01:15:26.461Z,2.06
2019-01-23T01:15:52.614Z,1.89
2019-01-23T01:16:18.760Z,1.91
2019-01-23T01:16:44.918Z,1.97
2019-01-23T01:17:11.102Z,1.88
2019-01-23T01:17:37.256Z,1.81
2019-01-23T01:18:03.403Z,1.87
2019-01-23T01:18:29.553Z,1.84
2019-01-23T01:18:55.753Z,1.81
2019-01-23T01:19:21.914Z,2
2019-01-23T01:19:48.060Z,1.94
2019-01-23T01:20:14.216Z,1.87
2019-01-23T01:20:40.369Z,1.99
2019-01-23T01:21:06.526Z,1.89
2019-01-23T01:21:32.677Z,1.84
2019-01-23T01:21:58.822Z,1.88
2019-01-23T01:22:24.978Z,1.87
2019-01-23T01:22:51.129Z,1.85
2019-01-23T01:23:17.324Z,1.91
2019-01-23T01:23:43.481Z,1.91
2019-01-23T01:24:09.635Z,1.85
2019-01-23T01:24:35.787Z,1.85
2019-01-23T01:25:01.934Z,1.84
2019-01-23T01:25:28.125Z,1.88
2019-01-23T01:25:54.320Z,1.81
2019-01-23T01:26:20.473Z,1.76
2019-01-23T01:26:46.631Z,1.78
2019-01-23T01:27:12.782Z,1.78
2019-01-23T01:27:38.938Z,1.78
2019-01-23T01:28:05.121Z,1.8
2019-01-23T01:28:31.278Z,1.84
2019-01-23T01:28:58.424Z,1.8
2019-01-23T01:29:24.582Z,1.78
2019-01-23T01:29:50.772Z,1.8
2019-01-23T01:30:16.922Z,1.78
2019-01-23T01:30:43.078Z,1.91
2019-01-23T01:31:09.267Z,1.84
2019-01-23T01:31:35.415Z,1.78
2019-01-23T01:32:01.615Z,1.8
2019-01-23T01:32:27.765Z,1.8
2019-01-23T01:32:53.952Z,1.78
2019-01-23T01:33:20.106Z,1.77
2019-01-23T01:33:47.246Z,1.74
2019-01-23T01:34:13.403Z,1.8
2019-01-23T01:34:39.562Z,1.77
2019-01-23T01:35:05.718Z,1.76
2019-01-23T01:35:31.870Z,1.67
2019-01-23T01:35:58.026Z,1.7
2019-01-23T01:36:24.178Z,1.59
2019-01-23T01:36:50.331Z,1.66
2019-01-23T01:37:16.485Z,1.58
2019-01-23T01:37:42.645Z,1.63
2019-01-23T01:38:08.834Z,1.67
2019-01-23T01:38:34.986Z,1.67
2019-01-23T01:39:01.148Z,1.66
2019-01-23T01:39:27.333Z,1.68
2019-01-23T01:39:53.494Z,1.73
2019-01-23T01:40:20.632Z,1.74
2019-01-23T01:40:46.786Z,1.73
2019-01-23T01:41:12.941Z,1.73
2019-01-23T01:41:39.095Z,1.74
2019-01-23T01:42:05.251Z,1.7
2019-01-23T01:42:31.403Z,1.68
2019-01-23T01:42:57.550Z,1.74
2019-01-23T01:43:23.699Z,1.73
2019-01-23T01:43:49.850Z,1.71
2019-01-23T01:44:16.000Z,1.74
2019-01-23T01:44:42.154Z,1.73
2019-01-23T01:45:08.614Z,1.76
2019-01-23T01:45:34.763Z,1.8
2019-01-23T01:46:00.924Z,1.73
2019-01-23T01:46:27.116Z,1.73
2019-01-23T01:46:53.270Z,1.67
2019-01-23T01:47:19.427Z,1.66
2019-01-23T01:47:45.577Z,1.7
2019-01-23T01:48:11.731Z,1.67
2019-01-23T01:48:37.889Z,1.62
2019-01-23T01:49:04.068Z,1.6
2019-01-23T01:49:30.261Z,1.56
2019-01-23T01:49:56.414Z,1.6
2019-01-23T01:50:22.601Z,1.52
2019-01-23T01:50:48.752Z,1.52
2019-01-23T01:51:14.910Z,1.56
2019-01-23T01:51:41.063Z,1.45
2019-01-23T01:52:07.208Z,1.62
2019-01-23T01:52:33.364Z,1.62
2019-01-23T01:52:59.519Z,1.52
2019-01-23T01:53:25.668Z,1.49
2019-01-23T01:53:51.865Z,1.58
2019-01-23T01:54:18.015Z,1.52
2019-01-23T01:54:44.167Z,1.59
2019-01-23T01:55:10.361Z,1.5
2019-01-23T01:55:36.515Z,1.45
2019-01-23T01:56:02.662Z,1.48
2019-01-23T01:56:28.819Z,1.5
2019-01-23T01:56:54.970Z,1.49
2019-01-23T01:57:21.165Z,1.52
2019-01-23T01:57:47.325Z,1.52
2019-01-23T01:58:14.472Z,1.55
2019-01-23T01:58:40.626Z,1.53
2019-01-23T01:59:08.225Z,1.58
2019-01-23T01:59:34.380Z,1.59
2019-01-23T02:00:00.564Z,1.59
2019-01-23T02:00:26.719Z,1.56
2019-01-23T02:00:52.876Z,1.6
2019-01-23T02:01:19.027Z,1.58
2019-01-23T02:01:45.177Z,1.58
2019-01-23T02:02:11.331Z,1.56
2019-01-23T02:02:37.529Z,1.59
2019-01-23T02:03:03.748Z,1.59
2019-01-23T02:03:30.894Z,1.59
2019-01-23T02:03:57.049Z,1.58
2019-01-23T02:04:23.206Z,1.55
2019-01-23T02:04:49.354Z,1.58
2019-01-23T02:05:15.513Z,1.59
2019-01-23T02:05:41.667Z,1.56
2019-01-23T02:06:07.818Z,1.59
2019-01-23T02:06:33.963Z,1.58
2019-01-23T02:07:00.118Z,1.53
2019-01-23T02:07:26.271Z,1.52
2019-01-23T02:07:52.430Z,1.48
2019-01-23T02:08:18.580Z,1.63
2019-01-23T02:08:44.776Z,1.56
2019-01-23T02:09:10.918Z,1.59
2019-01-23T02:09:38.067Z,1.59
2019-01-23T02:10:05.213Z,1.67
2019-01-23T02:10:31.400Z,1.59
2019-01-23T02:10:57.553Z,1.68
2019-01-23T02:11:23.709Z,1.59
2019-01-23T02:11:49.864Z,1.71
2019-01-23T02:12:16.015Z,1.68
2019-01-23T02:12:42.173Z,1.7
2019-01-23T02:13:08.333Z,1.63
2019-01-23T02:13:34.486Z,1.63
2019-01-23T02:14:00.638Z,1.63
2019-01-23T02:14:26.791Z,1.6
2019-01-23T02:14:52.944Z,1.58
2019-01-23T02:15:19.105Z,1.55
2019-01-23T02:15:45.255Z,1.62
2019-01-23T02:16:11.406Z,1.67
2019-01-23T02:16:37.595Z,1.66
2019-01-23T02:17:03.743Z,1.68
2019-01-23T02:17:29.936Z,1.59
2019-01-23T02:17:56.124Z,1.66
2019-01-23T02:18:22.278Z,1.56
2019-01-23T02:18:48.429Z,1.68
2019-01-23T02:19:14.585Z,1.58
2019-01-23T02:19:40.779Z,1.59
2019-01-23T02:20:06.929Z,1.63
2019-01-23T02:20:33.113Z,1.73
2019-01-23T02:20:59.299Z,1.67
2019-01-23T02:21:25.455Z,1.66
2019-01-23T02:21:51.607Z,1.59
2019-01-23T02:22:17.752Z,1.59
2019-01-23T02:22:43.940Z,1.6
2019-01-23T02:23:10.967Z,1.58
2019-01-23T02:23:37.160Z,1.58
2019-01-23T02:24:03.325Z,1.63
2019-01-23T02:24:29.514Z,1.59
2019-01-23T02:24:55.667Z,1.6
2019-01-23T02:25:21.822Z,1.62
2019-01-23T02:25:47.975Z,1.55
2019-01-23T02:26:14.130Z,1.59
2019-01-23T02:26:40.318Z,1.55
2019-01-23T02:27:06.471Z,1.59
2019-01-23T02:27:32.623Z,1.68
2019-01-23T02:27:58.819Z,1.71
2019-01-23T02:28:25.011Z,1.77
2019-01-23T02:28:51.170Z,1.68
2019-01-23T02:29:18.312Z,1.74
2019-01-23T02:29:44.463Z,1.74
2019-01-23T02:30:10.688Z,1.76
2019-01-23T02:30:36.926Z,1.8
2019-01-23T02:31:03.116Z,1.84
2019-01-23T02:31:29.273Z,1.8
2019-01-23T02:31:55.428Z,1.77
2019-01-23T02:32:21.613Z,1.84
2019-01-23T02:32:47.776Z,1.81
2019-01-23T02:33:13.922Z,1.74
2019-01-23T02:33:40.082Z,1.76
2019-01-23T02:34:06.273Z,1.84
2019-01-23T02:34:32.519Z,1.81
2019-01-23T02:34:58.669Z,1.78
2019-01-23T02:35:24.895Z,1.77
2019-01-23T02:35:51.040Z,1.76
2019-01-23T02:36:17.190Z,1.88
2019-01-23T02:36:43.344Z,1.77
2019-01-23T02:37:09.498Z,1.8
2019-01-23T02:37:35.686Z,1.81
2019-01-23T02:38:01.851Z,1.84
2019-01-23T02:38:28.041Z,1.76
2019-01-23T02:38:54.231Z,1.8
2019-01-23T02:39:20.391Z,1.68
2019-01-23T02:39:46.542Z,1.63
2019-01-23T02:40:12.697Z,1.6
2019-01-23T02:40:38.841Z,1.58
2019-01-23T02:41:05.001Z,1.53
2019-01-23T02:41:31.192Z,1.58
2019-01-23T02:41:57.352Z,1.45
2019-01-23T02:42:23.504Z,1.52
2019-01-23T02:42:49.654Z,1.5
2019-01-23T02:43:15.814Z,1.35
2019-01-23T02:43:41.974Z,1.34
2019-01-23T02:44:08.113Z,1.34
2019-01-23T02:44:34.259Z,1.3
2019-01-23T02:45:00.419Z,1.31
2019-01-23T02:45:26.612Z,1.34
2019-01-23T02:45:52.769Z,1.4
2019-01-23T02:46:18.924Z,1.35
2019-01-23T02:46:45.075Z,1.31
2019-01-23T02:47:11.230Z,1.32
2019-01-23T02:47:37.423Z,1.42
2019-01-23T02:48:03.575Z,1.44
2019-01-23T02:48:29.730Z,1.49
2019-01-23T02:48:55.887Z,1.48
2019-01-23T02:49:22.076Z,1.48
2019-01-23T02:49:48.232Z,1.53
2019-01-23T02:50:14.427Z,1.49
2019-01-23T02:50:40.615Z,1.45
2019-01-23T02:51:06.849Z,1.45
2019-01-23T02:51:33.003Z,1.48
2019-01-23T02:51:59.190Z,1.52
2019-01-23T02:52:25.386Z,1.53
2019-01-23T02:52:51.542Z,1.53
2019-01-23T02:53:17.767Z,1.55
2019-01-23T02:53:43.921Z,1.49
2019-01-23T02:54:10.076Z,1.5
2019-01-23T02:54:36.391Z,1.5
2019-01-23T02:55:02.550Z,1.45
2019-01-23T02:55:28.764Z,1.52
2019-01-23T02:55:54.926Z,1.59
2019-01-23T02:56:21.076Z,1.63
2019-01-23T02:56:47.222Z,1.62
2019-01-23T02:57:13.371Z,1.52
2019-01-23T02:57:39.530Z,1.55
2019-01-23T02:58:05.684Z,1.58
2019-01-23T02:58:31.828Z,1.56
2019-01-23T02:58:57.989Z,1.58
2019-01-23T02:59:25.171Z,1.59
2019-01-23T02:59:51.369Z,1.58
2019-01-23T03:00:17.599Z,1.48
2019-01-23T03:00:43.753Z,1.48
2019-01-23T03:01:10.018Z,1.48
2019-01-23T03:01:36.160Z,1.44
2019-01-23T03:02:02.312Z,1.42
2019-01-23T03:02:28.544Z,1.34
2019-01-23T03:02:54.697Z,1.24
2019-01-23T03:03:20.852Z,1.24
2019-01-23T03:03:47.008Z,1.3
2019-01-23T03:04:13.235Z,1.3
2019-01-23T03:04:39.384Z,1.23
2019-01-23T03:05:05.526Z,1.32
2019-01-23T03:05:31.678Z,1.31
2019-01-23T03:05:57.870Z,1.24
2019-01-23T03:06:24.008Z,1.32
2019-01-23T03:06:50.201Z,1.38
2019-01-23T03:07:16.357Z,1.32
2019-01-23T03:07:42.514Z,1.31
2019-01-23T03:08:08.702Z,1.32
2019-01-23T03:08:34.852Z,1.23
2019-01-23T03:09:01.003Z,1.2
2019-01-23T03:09:27.187Z,1.14
2019-01-23T03:09:53.374Z,1.13
2019-01-23T03:10:19.528Z,1.14
2019-01-23T03:10:45.684Z,1.28
2019-01-23T03:11:11.882Z,1.28
2019-01-23T03:11:38.036Z,1.22
2019-01-23T03:12:04.230Z,1.3
2019-01-23T03:12:30.385Z,1.22
2019-01-23T03:12:56.538Z,1.2
2019-01-23T03:13:22.689Z,1.19
2019-01-23T03:13:48.915Z,1.2
2019-01-23T03:14:15.070Z,1.28
2019-01-23T03:14:41.221Z,1.19
2019-01-23T03:15:07.414Z,1.08
2019-01-23T03:15:33.564Z,1.26
2019-01-23T03:15:59.721Z,1.2
2019-01-23T03:16:25.868Z,1.17
2019-01-23T03:16:52.022Z,1.14
2019-01-23T03:17:18.177Z,1.22
2019-01-23T03:17:44.337Z,1.22
2019-01-23T03:18:10.485Z,1.14
2019-01-23T03:18:36.642Z,1.12
2019-01-23T03:19:02.795Z,1.1
2019-01-23T03:19:28.982Z,1.05
2019-01-23T03:19:55.179Z,1.06
2019-01-23T03:20:21.369Z,1.01
2019-01-23T03:20:47.523Z,1.02
2019-01-23T03:21:13.675Z,1.05
2019-01-23T03:21:39.827Z,1.02
2019-01-23T03:22:05.988Z,1.02
2019-01-23T03:22:32.139Z,0.99
2019-01-23T03:22:58.328Z,1.06
2019-01-23T03:23:24.520Z,0.98
2019-01-23T03:23:50.674Z,0.98
2019-01-23T03:24:16.826Z,0.99
2019-01-23T03:24:42.977Z,1.01
2019-01-23T03:25:09.172Z,1.01
2019-01-23T03:25:35.374Z,0.98
2019-01-23T03:26:01.554Z,1.01
2019-01-23T03:26:27.714Z,1.04
2019-01-23T03:26:53.902Z,1.02
2019-01-23T03:27:20.114Z,1.02
2019-01-23T03:27:46.274Z,1.1
2019-01-23T03:28:12.462Z,1.01
2019-01-23T03:28:38.608Z,1.1
2019-01-23T03:29:04.767Z,1.1
2019-01-23T03:29:31.911Z,1.1
2019-01-23T03:29:58.062Z,1.02
2019-01-23T03:30:24.268Z,1.1
2019-01-23T03:30:50.419Z,1.02
2019-01-23T03:31:16.682Z,0.99
2019-01-23T03:31:42.881Z,1.05
2019-01-23T03:32:09.116Z,0.92
2019-01-23T03:32:35.309Z,0.94
2019-01-23T03:33:01.566Z,0.94
2019-01-23T03:33:27.791Z,0.99
2019-01-23T03:33:53.940Z,1.01
2019-01-23T03:34:20.105Z,1.01
2019-01-23T03:34:46.252Z,1.06
2019-01-23T03:35:12.412Z,1.04
2019-01-23T03:35:38.567Z,1.04
2019-01-23T03:36:04.724Z,1.06
2019-01-23T03:36:30.863Z,0.94
2019-01-23T03:36:57.016Z,1.05
2019-01-23T03:37:23.211Z,1.01
2019-01-23T03:37:49.368Z,0.99
2019-01-23T03:38:15.561Z,1.01
2019-01-23T03:38:41.715Z,0.95
2019-01-23T03:39:07.869Z,1.02
2019-01-23T03:39:34.061Z,1.04
2019-01-23T03:40:00.245Z,1.02
2019-01-23T03:40:26.413Z,0.94
2019-01-23T03:40:52.565Z,0.94
2019-01-23T03:41:18.717Z,0.96
2019-01-23T03:41:44.873Z,0.96
2019-01-23T03:42:11.099Z,0.98
2019-01-23T03:42:37.331Z,0.91
2019-01-23T03:43:03.551Z,0.76
2019-01-23T03:43:29.741Z,0.8
2019-01-23T03:43:55.894Z,0.81
2019-01-23T03:44:22.051Z,0.8
2019-01-23T03:44:48.235Z,0.84
2019-01-23T03:45:15.379Z,0.77
2019-01-23T03:45:41.561Z,0.74
2019-01-23T03:46:07.722Z,0.8
2019-01-23T03:46:33.912Z,0.81
2019-01-23T03:47:00.063Z,0.8
2019-01-23T03:47:26.216Z,0.87
2019-01-23T03:47:52.363Z,0.98
2019-01-23T03:48:18.515Z,0.88
2019-01-23T03:48:44.675Z,0.94
2019-01-23T03:49:10.831Z,0.91
2019-01-23T03:49:37.015Z,0.91
2019-01-23T03:50:03.203Z,0.94
2019-01-23T03:50:29.358Z,0.96
2019-01-23T03:50:55.511Z,0.91
2019-01-23T03:51:21.667Z,0.95
2019-01-23T03:51:47.813Z,0.88
2019-01-23T03:52:13.968Z,0.87
2019-01-23T03:52:40.117Z,0.77
2019-01-23T03:53:06.273Z,0.83
2019-01-23T03:53:32.453Z,0.83
2019-01-23T03:53:58.644Z,0.81
2019-01-23T03:54:24.794Z,0.77
2019-01-23T03:54:50.946Z,0.84
2019-01-23T03:55:17.095Z,0.78
2019-01-23T03:55:43.249Z,0.83
2019-01-23T03:56:09.435Z,0.81
2019-01-23T03:56:35.631Z,0.78
2019-01-23T03:57:01.790Z,0.81
2019-01-23T03:57:28.024Z,0.77
2019-01-23T03:57:54.133Z,0.68
2019-01-23T03:58:20.328Z,0.78
2019-01-23T03:58:46.488Z,0.7
2019-01-23T03:59:12.678Z,0.76
2019-01-23T03:59:39.859Z,0.76
2019-01-23T04:00:06.015Z,0.68
2019-01-23T04:00:32.168Z,0.66
2019-01-23T04:00:58.365Z,0.65
2019-01-23T04:01:24.509Z,0.68
2019-01-23T04:01:50.655Z,0.62
2019-01-23T04:02:16.804Z,0.62
2019-01-23T04:02:43.009Z,0.68
2019-01-23T04:03:09.192Z,0.63
2019-01-23T04:03:35.349Z,0.66
2019-01-23T04:04:01.512Z,0.66
2019-01-23T04:04:27.741Z,0.66
2019-01-23T04:04:53.967Z,0.73
2019-01-23T04:05:20.121Z,0.69
2019-01-23T04:05:46.880Z,0.69
2019-01-23T04:06:13.063Z,0.68
2019-01-23T04:06:39.248Z,0.68
2019-01-23T04:07:05.406Z,0.66
2019-01-23T04:07:31.564Z,0.7
2019-01-23T04:07:57.715Z,0.7
2019-01-23T04:08:23.864Z,0.68
2019-01-23T04:08:50.046Z,0.77
2019-01-23T04:09:16.203Z,0.69
2019-01-23T04:09:42.386Z,0.7
2019-01-23T04:10:08.534Z,0.73
2019-01-23T04:10:34.725Z,0.84
2019-01-23T04:11:00.867Z,0.83
2019-01-23T04:11:27.004Z,0.83
2019-01-23T04:11:53.144Z,0.81
2019-01-23T04:12:19.285Z,0.77
2019-01-23T04:12:45.445Z,0.76
2019-01-23T04:13:11.587Z,0.68
2019-01-23T04:13:37.712Z,0.68
2019-01-23T04:14:03.837Z,0.68
2019-01-23T04:14:29.990Z,0.77
2019-01-23T04:14:56.104Z,0.73
2019-01-23T04:15:22.239Z,0.77
2019-01-23T04:15:48.342Z,0.8
2019-01-23T04:16:14.467Z,0.81
2019-01-23T04:16:40.575Z,0.69
2019-01-23T04:17:06.674Z,0.7
2019-01-23T04:17:32.778Z,0.76
2019-01-23T04:17:58.878Z,0.63
2019-01-23T04:18:24.984Z,0.62
2019-01-23T04:18:51.083Z,0.69
2019-01-23T04:19:17.194Z,0.59
2019-01-23T04:19:43.300Z,0.68
2019-01-23T04:20:09.401Z,0.68
2019-01-23T04:20:35.541Z,0.69
2019-01-23T04:21:01.671Z,0.7
2019-01-23T04:21:27.778Z,0.73
2019-01-23T04:21:53.885Z,0.74
2019-01-23T04:22:19.991Z,0.73
2019-01-23T04:22:47.078Z,0.69
2019-01-23T04:23:13.183Z,0.7
2019-01-23T04:23:39.313Z,0.66
2019-01-23T04:24:05.411Z,0.7
2019-01-23T04:24:31.514Z,0.73
2019-01-23T04:24:57.644Z,0.8
2019-01-23T04:25:23.779Z,0.83
2019-01-23T04:25:49.886Z,0.83
2019-01-23T04:26:15.991Z,0.8
2019-01-23T04:26:42.123Z,0.86
2019-01-23T04:27:08.253Z,0.8
2019-01-23T04:27:34.388Z,0.77
2019-01-23T04:28:00.523Z,0.81
2019-01-23T04:28:26.623Z,0.84
2019-01-23T04:28:52.725Z,0.76
2019-01-23T04:29:18.863Z,0.7
2019-01-23T04:29:45.958Z,0.74
2019-01-23T04:30:12.055Z,0.66
2019-01-23T04:30:38.160Z,0.62
2019-01-23T04:31:04.261Z,0.74
2019-01-23T04:31:30.370Z,0.59
2019-01-23T04:31:56.475Z,0.7
2019-01-23T04:32:22.616Z,0.73
2019-01-23T04:32:48.722Z,0.65
2019-01-23T04:33:14.847Z,0.63
2019-01-23T04:33:40.975Z,0.63
2019-01-23T04:34:07.107Z,0.65
2019-01-23T04:34:33.239Z,0.65
2019-01-23T04:34:59.406Z,0.7
2019-01-23T04:35:25.511Z,0.68
2019-01-23T04:35:51.615Z,0.69
2019-01-23T04:36:17.739Z,0.77
2019-01-23T04:36:43.855Z,0.66
2019-01-23T04:37:09.965Z,0.77
2019-01-23T04:37:36.054Z,0.66
2019-01-23T04:38:02.187Z,0.8
2019-01-23T04:38:28.287Z,0.8
2019-01-23T04:38:54.397Z,0.83
2019-01-23T04:39:20.500Z,0.87
2019-01-23T04:39:46.633Z,0.84
2019-01-23T04:40:12.730Z,0.69
2019-01-23T04:40:38.859Z,0.69
2019-01-23T04:41:04.966Z,0.83
2019-01-23T04:41:31.121Z,0.77
2019-01-23T04:41:57.222Z,0.83
2019-01-23T04:42:23.352Z,0.8
2019-01-23T04:42:49.488Z,0.8
2019-01-23T04:43:15.594Z,0.76
2019-01-23T04:43:41.698Z,0.78
2019-01-23T04:44:07.830Z,0.83
2019-01-23T04:44:33.958Z,0.83
2019-01-23T04:45:00.200Z,0.8
2019-01-23T04:45:26.274Z,0.81
2019-01-23T04:45:52.403Z,0.83
2019-01-23T04:46:18.507Z,0.78
2019-01-23T04:46:44.605Z,0.76
2019-01-23T04:47:10.722Z,0.81
2019-01-23T04:47:36.832Z,0.86
2019-01-23T04:48:02.960Z,0.83
2019-01-23T04:48:29.055Z,0.8
2019-01-23T04:48:55.161Z,0.86
2019-01-23T04:49:21.267Z,0.83
2019-01-23T04:49:47.366Z,0.81
2019-01-23T04:50:13.466Z,0.86
2019-01-23T04:50:39.575Z,0.91
2019-01-23T04:51:05.740Z,0.8
2019-01-23T04:51:31.865Z,0.83
2019-01-23T04:51:57.976Z,0.78
2019-01-23T04:52:24.080Z,0.83
2019-01-23T04:52:50.179Z,0.83
2019-01-23T04:53:16.291Z,0.76
2019-01-23T04:53:42.428Z,0.8
2019-01-23T04:54:08.550Z,0.69
2019-01-23T04:54:34.652Z,0.68
2019-01-23T04:55:00.755Z,0.78
2019-01-23T04:55:26.854Z,0.84
2019-01-23T04:55:52.989Z,0.7
2019-01-23T04:56:19.094Z,0.69
2019-01-23T04:56:45.194Z,0.76
2019-01-23T04:57:11.359Z,0.77
2019-01-23T04:57:37.467Z,0.81
2019-01-23T04:58:03.573Z,0.7
2019-01-23T04:58:29.733Z,0.84
2019-01-23T04:58:55.833Z,0.77
2019-01-23T04:59:21.940Z,0.84
2019-01-23T04:59:49.028Z,0.8
2019-01-23T05:00:15.135Z,0.8
2019-01-23T05:00:41.267Z,0.83
2019-01-23T05:01:07.361Z,0.7
2019-01-23T05:01:33.464Z,0.74
2019-01-23T05:01:59.592Z,0.78
2019-01-23T05:02:25.728Z,0.65
2019-01-23T05:02:51.829Z,0.65
2019-01-23T05:03:17.961Z,0.7
2019-01-23T05:03:44.066Z,0.76
2019-01-23T05:04:10.175Z,0.68
2019-01-23T05:04:36.283Z,0.63
2019-01-23T05:05:02.435Z,0.7
2019-01-23T05:05:28.570Z,0.59
2019-01-23T05:05:54.698Z,0.63
2019-01-23T05:06:20.804Z,0.55
2019-01-23T05:06:46.907Z,0.58
2019-01-23T05:07:13.012Z,0.56
2019-01-23T05:07:39.142Z,0.49
2019-01-23T05:08:05.243Z,0.55
2019-01-23T05:08:31.383Z,0.43
2019-01-23T05:08:57.486Z,0.56
2019-01-23T05:09:23.590Z,0.47
2019-01-23T05:09:49.695Z,0.44
2019-01-23T05:10:15.843Z,0.44
2019-01-23T05:10:41.944Z,0.5
2019-01-23T05:11:08.071Z,0.4
2019-01-23T05:11:34.176Z,0.47
2019-01-23T05:12:00.289Z,0.39
2019-01-23T05:12:26.417Z,0.47
2019-01-23T05:12:52.528Z,0.37
2019-01-23T05:13:18.658Z,0.49
2019-01-23T05:13:44.758Z,0.46
2019-01-23T05:14:10.856Z,0.41
2019-01-23T05:14:36.994Z,0.47
2019-01-23T05:15:03.119Z,0.46
2019-01-23T05:15:29.252Z,0.52
2019-01-23T05:15:55.418Z,0.47
2019-01-23T05:16:21.546Z,0.55
2019-01-23T05:16:47.658Z,0.46
2019-01-23T05:17:13.758Z,0.52
2019-01-23T05:17:39.864Z,0.47
2019-01-23T05:18:05.991Z,0.5
2019-01-23T05:18:32.091Z,0.46
2019-01-23T05:18:58.198Z,0.5
2019-01-23T05:19:24.294Z,0.56
2019-01-23T05:19:50.399Z,0.46
2019-01-23T05:20:16.500Z,0.52
2019-01-23T05:20:42.600Z,0.52
2019-01-23T05:21:08.711Z,0.6
2019-01-23T05:21:34.814Z,0.58
2019-01-23T05:22:00.935Z,0.63
2019-01-23T05:22:27.063Z,0.66
2019-01-23T05:22:53.167Z,0.62
2019-01-23T05:23:19.269Z,0.66
2019-01-23T05:23:45.399Z,0.65
2019-01-23T05:24:11.504Z,0.7
2019-01-23T05:24:37.604Z,0.65
2019-01-23T05:25:03.712Z,0.66
2019-01-23T05:25:29.810Z,0.76
2019-01-23T05:25:55.908Z,0.69
2019-01-23T05:26:22.021Z,0.65
2019-01-23T05:26:48.153Z,0.68
2019-01-23T05:27:14.258Z,0.66
2019-01-23T05:27:40.360Z,0.56
2019-01-23T05:28:06.521Z,0.62
2019-01-23T05:28:32.618Z,0.63
2019-01-23T05:28:58.717Z,0.69
2019-01-23T05:29:24.874Z,0.68
2019-01-23T05:29:54.935Z,0.69
2019-01-23T05:30:18.110Z,0.69
2019-01-23T05:30:44.243Z,0.68
2019-01-23T05:31:10.349Z,0.65
2019-01-23T05:31:36.486Z,0.66
2019-01-23T05:32:02.766Z,0.65
2019-01-23T05:32:28.942Z,0.69
2019-01-23T05:32:55.048Z,0.68
2019-01-23T05:33:21.182Z,0.7
2019-01-23T05:33:47.287Z,0.58
2019-01-23T05:34:13.394Z,0.63
2019-01-23T05:34:39.493Z,0.73
2019-01-23T05:35:05.626Z,0.65
2019-01-23T05:35:31.724Z,0.56
2019-01-23T05:35:57.826Z,0.65
2019-01-23T05:36:23.961Z,0.46
2019-01-23T05:36:50.060Z,0.47
2019-01-23T05:37:16.163Z,0.6
2019-01-23T05:37:42.267Z,0.62
2019-01-23T05:38:08.468Z,0.6
2019-01-23T05:38:34.575Z,0.6
2019-01-23T05:39:00.740Z,0.6
2019-01-23T05:39:26.838Z,0.63
2019-01-23T05:39:52.942Z,0.66
2019-01-23T05:40:19.049Z,0.56
2019-01-23T05:40:45.180Z,0.49
2019-01-23T05:41:11.313Z,0.49
2019-01-23T05:41:37.417Z,0.58
2019-01-23T05:42:03.546Z,0.52
2019-01-23T05:42:29.676Z,0.44
2019-01-23T05:42:55.781Z,0.39
2019-01-23T05:43:21.916Z,0.36
2019-01-23T05:43:48.010Z,0.4
2019-01-23T05:44:14.134Z,0.37
2019-01-23T05:44:40.237Z,0.39
2019-01-23T05:45:06.339Z,0.46
2019-01-23T05:45:32.477Z,0.47
2019-01-23T05:45:58.602Z,0.52
2019-01-23T05:46:24.730Z,0.39
2019-01-23T05:46:50.815Z,0.52
2019-01-23T05:47:16.944Z,0.41
2019-01-23T05:47:43.041Z,0.46
2019-01-23T05:48:09.150Z,0.39
2019-01-23T05:48:35.256Z,0.41
2019-01-23T05:49:01.392Z,0.41
2019-01-23T05:49:27.488Z,0.5
2019-01-23T05:49:53.596Z,0.49